Time;durP1;ratioP1;P1;durP2;ratioP2;P2;SDS_P1;SDS_P2;PMS_P1;PMS_P2;Temp;Humidity;BMP_temperature;BMP_pressure;BME280_temperature;BME280_humidity;BME280_pressure;Samples;Min_cycle;Max_cycle;Signal;HPM_P1;HPM_P2
2023/03/28 00:01:10;;;;;;;3.90;2.40;;;0.40;99.90;;;;;;4982376;28;20038;-82
2023/03/28 00:03:38;;;;;;;2.80;2.65;;;0.40;99.90;;;;;;4987825;28;20490;-80
2023/03/28 00:06:08;;;;;;;3.07;2.77;;;0.40;99.90;;;;;;4982274;28;20031;-82
2023/03/28 00:08:35;;;;;;;3.28;2.60;;;0.40;99.90;;;;;;4987829;28;20305;-81
2023/03/28 00:11:18;;;;;;;2.78;2.55;;;0.30;99.90;;;;;;4978791;28;20041;-81
2023/03/28 00:13:45;;;;;;;2.72;2.53;;;0.30;99.90;;;;;;4982147;28;20045;-80
2023/03/28 00:16:11;;;;;;;3.63;2.90;;;0.30;99.90;;;;;;4980445;28;20372;-79
2023/03/28 00:18:37;;;;;;;3.95;2.58;;;0.30;99.90;;;;;;4987750;28;20030;-80
2023/03/28 00:21:18;;;;;;;3.28;2.80;;;0.30;99.90;;;;;;4985244;28;20041;-80
2023/03/28 00:23:44;;;;;;;2.90;2.60;;;0.30;99.90;;;;;;4943641;28;1167223;-81
2023/03/28 00:26:12;;;;;;;2.45;2.25;;;0.30;99.90;;;;;;4987290;28;20035;-80
2023/03/28 00:28:38;;;;;;;4.60;3.03;;;0.20;99.90;;;;;;4989599;28;20054;-81
2023/03/28 00:31:07;;;;;;;4.40;2.88;;;0.20;99.90;;;;;;4982584;28;20038;-80
2023/03/28 00:33:33;;;;;;;4.45;2.92;;;0.20;99.90;;;;;;4984197;28;20062;-80
2023/03/28 00:35:59;;;;;;;4.53;3.53;;;0.10;99.90;;;;;;4988897;28;20030;-81
2023/03/28 00:38:26;;;;;;;2.53;2.33;;;0.20;99.90;;;;;;4990403;28;20034;-80
2023/03/28 00:40:54;;;;;;;5.88;3.88;;;0.10;99.90;;;;;;4985227;28;20043;-80
2023/03/28 00:43:41;;;;;;;2.53;2.30;;;0.20;99.90;;;;;;4985100;28;20114;-79
2023/03/28 00:46:19;;;;;;;2.88;2.63;;;0.10;99.90;;;;;;4988365;28;20094;-80
2023/03/28 00:48:52;;;;;;;2.75;2.13;;;0.00;99.90;;;;;;4986032;28;20824;-80
2023/03/28 00:51:20;;;;;;;4.43;3.50;;;0.00;99.90;;;;;;4987642;28;20058;-80
2023/03/28 00:53:47;;;;;;;3.50;3.17;;;-0.10;99.90;;;;;;4992032;28;20031;-80
2023/03/28 00:56:16;;;;;;;4.82;3.20;;;-0.10;99.90;;;;;;4985471;28;20101;-81
2023/03/28 00:58:43;;;;;;;6.28;3.83;;;-0.10;99.90;;;;;;4991066;28;20039;-81
2023/03/28 01:01:12;;;;;;;3.97;3.17;;;-0.10;99.90;;;;;;4989090;28;20495;-76
2023/03/28 01:03:40;;;;;;;4.22;3.20;;;-0.10;99.90;;;;;;4983575;28;20034;-76
2023/03/28 01:06:08;;;;;;;3.35;3.05;;;-0.10;99.90;;;;;;4983428;28;20023;-77
2023/03/28 01:08:38;;;;;;;4.85;3.30;;;-0.10;99.90;;;;;;4982685;28;20039;-76
2023/03/28 01:11:05;;;;;;;3.15;2.85;;;-0.10;99.90;;;;;;4984571;28;20058;-76
2023/03/28 01:13:34;;;;;;;3.55;3.10;;;-0.10;99.90;;;;;;5000357;28;20033;-76
2023/03/28 01:16:02;;;;;;;3.15;2.58;;;-0.10;99.90;;;;;;4987237;28;20352;-76
2023/03/28 01:18:29;;;;;;;3.92;3.22;;;-0.20;99.90;;;;;;4999010;28;20034;-76
2023/03/28 01:21:27;;;;;;;3.35;3.05;;;-0.30;99.90;;;;;;4984161;28;20112;-76
2023/03/28 01:24:17;;;;;;;5.95;3.97;;;-0.30;99.90;;;;;;4982366;28;20136;-76
2023/03/28 01:27:03;;;;;;;2.83;2.40;;;-0.30;99.90;;;;;;4983856;28;20767;-76
2023/03/28 01:29:59;;;;;;;4.95;3.88;;;-0.30;99.90;;;;;;4984991;28;20094;-76
2023/03/28 01:32:43;;;;;;;4.18;3.78;;;-0.30;99.90;;;;;;4983183;28;20505;-76
2023/03/28 01:35:42;;;;;;;3.75;3.15;;;-0.30;99.90;;;;;;4979247;28;20038;-76
2023/03/28 01:38:27;;;;;;;4.28;3.33;;;-0.30;99.90;;;;;;4982613;28;20035;-77
2023/03/28 01:41:17;;;;;;;5.72;3.38;;;-0.30;99.90;;;;;;4977200;28;20128;-77
2023/03/28 01:43:57;;;;;;;5.15;3.55;;;-0.30;99.90;;;;;;4981929;28;20018;-77
2023/03/28 01:46:38;;;;;;;3.03;2.67;;;-0.30;99.90;;;;;;4977039;28;20030;-76
2023/03/28 01:49:10;;;;;;;7.10;3.55;;;-0.40;99.90;;;;;;4987958;28;20102;-76
2023/03/28 01:51:44;;;;;;;3.55;2.78;;;-0.40;99.90;;;;;;4985000;28;20079;-76
2023/03/28 01:54:28;;;;;;;6.38;4.68;;;-0.40;99.90;;;;;;4982929;28;20035;-77
2023/03/28 01:57:05;;;;;;;4.25;3.53;;;-0.40;99.90;;;;;;4980452;28;20062;-77
2023/03/28 01:59:55;;;;;;;3.22;2.58;;;-0.40;99.90;;;;;;4984060;28;20129;-76
2023/03/28 02:02:43;;;;;;;3.33;2.90;;;-0.40;99.90;;;;;;4982111;28;20047;-76
2023/03/28 02:05:13;;;;;;;3.15;2.85;;;-0.40;99.90;;;;;;4981549;28;20035;-77
2023/03/28 02:07:42;;;;;;;2.90;2.60;;;-0.50;99.90;;;;;;4991132;28;20054;-76
2023/03/28 02:10:10;;;;;;;2.40;2.20;;;-0.50;99.90;;;;;;4984675;28;20033;-76
2023/03/28 02:12:45;;;;;;;3.22;3.00;;;-0.50;99.90;;;;;;4986302;28;20030;-76
2023/03/28 02:15:15;;;;;;;3.53;2.67;;;-0.60;99.90;;;;;;4981766;28;20042;-76
2023/03/28 02:17:48;;;;;;;3.22;2.85;;;-0.50;99.90;;;;;;4993258;28;20479;-77
2023/03/28 02:20:18;;;;;;;1.80;1.70;;;-0.50;99.90;;;;;;4990378;28;20046;-77
2023/03/28 02:22:59;;;;;;;3.80;3.38;;;-0.40;99.90;;;;;;4995750;28;20058;-76
2023/03/28 02:25:25;;;;;;;3.22;2.90;;;-0.50;99.90;;;;;;4984820;28;20034;-76
2023/03/28 02:27:55;;;;;;;4.95;3.30;;;-0.50;99.90;;;;;;4984980;28;20047;-76
2023/03/28 02:30:21;;;;;;;4.43;3.33;;;-0.50;99.90;;;;;;4983380;28;20463;-77
2023/03/28 02:32:49;;;;;;;3.05;2.70;;;-0.50;99.90;;;;;;4977945;28;20070;-76
2023/03/28 02:35:16;;;;;;;7.28;4.10;;;-0.50;99.90;;;;;;4989323;28;20509;-77
2023/03/28 02:38:10;;;;;;;3.60;3.27;;;-0.50;99.90;;;;;;4983054;28;20027;-76
2023/03/28 02:41:09;;;;;;;6.38;3.22;;;-0.50;99.90;;;;;;4975798;28;20049;-76
2023/03/28 02:44:01;;;;;;;3.30;2.92;;;-0.50;99.90;;;;;;4990798;28;20057;-77
2023/03/28 02:46:30;;;;;;;2.88;2.63;;;-0.50;99.90;;;;;;4988272;28;20033;-77
2023/03/28 02:49:04;;;;;;;3.65;2.55;;;-0.60;99.90;;;;;;4992133;28;20057;-77
2023/03/28 02:51:40;;;;;;;4.80;3.35;;;-0.60;99.90;;;;;;4984403;28;20031;-76
2023/03/28 02:54:25;;;;;;;4.30;2.45;;;-0.60;99.90;;;;;;4991581;28;20085;-76
2023/03/28 02:57:18;;;;;;;3.17;2.92;;;-0.60;99.90;;;;;;4984589;28;20090;-76
2023/03/28 02:59:52;;;;;;;2.30;2.17;;;-0.70;99.90;;;;;;4984979;28;20043;-77
2023/03/28 03:02:20;;;;;;;5.82;2.50;;;-0.80;99.90;;;;;;4982368;28;20065;-77
2023/03/28 03:04:49;;;;;;;4.18;3.83;;;-0.80;99.90;;;;;;4992678;28;20642;-80
2023/03/28 03:07:17;;;;;;;6.07;3.05;;;-0.80;99.90;;;;;;4983559;28;20035;-79
2023/03/28 03:09:44;;;;;;;2.72;2.50;;;-0.70;99.90;;;;;;4983387;28;20510;-79
2023/03/28 03:12:11;;;;;;;6.20;3.80;;;-0.70;99.90;;;;;;4984467;28;20041;-78
2023/03/28 03:14:37;;;;;;;5.30;2.63;;;-0.70;99.90;;;;;;4984381;28;20035;-77
2023/03/28 03:17:04;;;;;;;1.85;1.75;;;-0.60;99.90;;;;;;4981563;28;20053;-77
2023/03/28 03:19:31;;;;;;;1.58;1.48;;;-0.60;99.90;;;;;;4984421;28;20463;-77
2023/03/28 03:21:57;;;;;;;2.38;2.28;;;-0.60;99.90;;;;;;4982081;28;20035;-76
2023/03/28 03:24:23;;;;;;;7.90;2.15;;;-0.60;99.90;;;;;;4985028;28;20046;-77
2023/03/28 03:26:49;;;;;;;3.83;2.75;;;-0.50;99.90;;;;;;4983460;28;20031;-77
2023/03/28 03:29:15;;;;;;;3.75;2.00;;;-0.40;99.90;;;;;;4985618;28;20041;-76
2023/03/28 03:31:41;;;;;;;2.55;2.33;;;-0.50;99.90;;;;;;4979778;28;20574;-76
2023/03/28 03:34:07;;;;;;;1.95;1.60;;;-0.40;99.90;;;;;;4981864;28;20030;-76
2023/03/28 03:36:32;;;;;;;7.47;3.40;;;-0.50;99.90;;;;;;4981320;28;20035;-77
2023/03/28 03:38:58;;;;;;;1.70;1.60;;;-0.50;99.90;;;;;;4981513;28;20042;-77
2023/03/28 03:41:24;;;;;;;7.20;4.13;;;-0.50;99.90;;;;;;4983042;28;20034;-77
2023/03/28 03:43:49;;;;;;;3.95;2.17;;;-0.40;99.90;;;;;;4982621;28;20031;-77
2023/03/28 03:46:15;;;;;;;3.38;2.75;;;-0.40;99.90;;;;;;4982512;28;20037;-77
2023/03/28 03:48:40;;;;;;;2.30;2.10;;;-0.50;99.90;;;;;;4985748;28;20078;-77
2023/03/28 03:51:06;;;;;;;4.70;3.03;;;-0.60;99.90;;;;;;4984057;28;20058;-76
2023/03/28 03:53:35;;;;;;;3.05;2.67;;;-0.60;99.90;;;;;;4985812;28;20031;-77
2023/03/28 03:56:01;;;;;;;4.30;3.50;;;-0.60;99.90;;;;;;4988060;28;20034;-77
2023/03/28 03:58:27;;;;;;;4.18;2.97;;;-0.60;99.90;;;;;;4989720;28;20035;-77
2023/03/28 04:00:53;;;;;;;5.30;3.33;;;-0.70;99.90;;;;;;4984793;28;20077;-77
2023/03/28 04:03:19;;;;;;;5.18;3.42;;;-0.60;99.90;;;;;;4982065;28;20065;-76
2023/03/28 04:05:44;;;;;;;3.20;2.72;;;-0.70;99.90;;;;;;4983544;28;20466;-77
2023/03/28 04:08:10;;;;;;;8.85;3.83;;;-0.80;99.90;;;;;;4982846;28;20039;-78
2023/03/28 04:10:36;;;;;;;8.02;3.67;;;-0.80;99.90;;;;;;4982379;28;20034;-77
2023/03/28 04:13:01;;;;;;;3.10;2.63;;;-0.90;99.90;;;;;;4984659;28;20049;-77
2023/03/28 04:15:27;;;;;;;7.03;2.92;;;-0.90;99.90;;;;;;4985843;28;20022;-76
2023/03/28 04:17:55;;;;;;;4.80;3.58;;;-0.90;99.90;;;;;;4984761;28;20102;-77
2023/03/28 04:20:28;;;;;;;4.65;3.47;;;-0.90;99.90;;;;;;4981217;28;20196;-77
2023/03/28 04:22:54;;;;;;;6.35;3.78;;;-0.80;99.90;;;;;;4982542;28;20050;-77
2023/03/28 04:25:20;;;;;;;6.47;4.28;;;-0.80;99.90;;;;;;4986558;28;20039;-77
2023/03/28 04:27:46;;;;;;;10.13;4.95;;;-0.80;99.90;;;;;;4982942;28;20053;-77
2023/03/28 04:30:12;;;;;;;5.93;3.92;;;-0.80;99.90;;;;;;4986222;28;20038;-76
2023/03/28 04:32:39;;;;;;;7.35;4.57;;;-0.80;99.90;;;;;;4980699;28;20558;-77
2023/03/28 04:35:06;;;;;;;5.55;3.63;;;-0.90;99.90;;;;;;4982389;28;20052;-77
2023/03/28 04:37:36;;;;;;;8.10;4.20;;;-0.90;99.90;;;;;;4982015;28;20077;-77
2023/03/28 04:40:10;;;;;;;6.50;3.60;;;-0.90;99.90;;;;;;4982178;28;20093;-77
2023/03/28 04:42:39;;;;;;;4.97;3.03;;;-1.00;99.90;;;;;;4986683;28;20026;-77
2023/03/28 04:45:05;;;;;;;4.47;3.55;;;-1.00;99.90;;;;;;4983172;28;20035;-77
2023/03/28 04:47:31;;;;;;;6.22;4.05;;;-1.00;99.90;;;;;;4982721;28;20036;-77
2023/03/28 04:49:57;;;;;;;14.77;10.32;;;-1.00;99.90;;;;;;4982169;28;20034;-77
2023/03/28 04:52:23;;;;;;;6.97;5.38;;;-1.00;99.90;;;;;;4983448;28;20039;-77
2023/03/28 04:54:50;;;;;;;4.43;3.95;;;-0.90;99.90;;;;;;4984856;28;20536;-77
2023/03/28 04:57:16;;;;;;;4.30;3.33;;;-1.00;99.90;;;;;;4985470;28;20031;-77
2023/03/28 04:59:41;;;;;;;6.57;4.55;;;-1.00;99.90;;;;;;4978526;28;20042;-77
2023/03/28 05:02:07;;;;;;;6.22;3.55;;;-1.00;99.90;;;;;;4984005;28;20403;-79
2023/03/28 05:04:32;;;;;;;7.30;3.60;;;-1.00;99.90;;;;;;4983732;28;20094;-76
2023/03/28 05:06:58;;;;;;;6.57;4.30;;;-1.10;99.90;;;;;;4980889;28;20058;-77
2023/03/28 05:09:25;;;;;;;5.60;4.40;;;-1.10;99.90;;;;;;4980301;28;20038;-77
2023/03/28 05:11:50;;;;;;;6.70;4.78;;;-1.10;99.90;;;;;;4983959;28;20070;-78
2023/03/28 05:14:16;;;;;;;5.00;3.42;;;-1.10;99.90;;;;;;4987481;28;20035;-78
2023/03/28 05:16:42;;;;;;;7.53;3.53;;;-1.10;99.90;;;;;;4985643;28;20038;-80
2023/03/28 05:19:08;;;;;;;5.35;3.53;;;-1.10;99.90;;;;;;4989830;28;20045;-77
2023/03/28 05:21:35;;;;;;;6.28;4.07;;;-1.10;99.90;;;;;;4987630;28;20041;-77
2023/03/28 05:24:00;;;;;;;9.38;5.05;;;-1.10;99.90;;;;;;4983948;28;20054;-77
2023/03/28 05:26:26;;;;;;;6.15;3.85;;;-1.20;99.90;;;;;;4982958;28;20042;-77
2023/03/28 05:28:52;;;;;;;5.47;3.95;;;-1.20;99.90;;;;;;4985817;28;20051;-75
2023/03/28 05:31:18;;;;;;;4.65;3.78;;;-1.20;99.90;;;;;;4986057;28;20041;-77
2023/03/28 05:33:44;;;;;;;7.35;4.15;;;-1.20;99.90;;;;;;4984270;28;20049;-77
2023/03/28 05:36:09;;;;;;;6.80;4.10;;;-1.20;99.90;;;;;;4980940;28;20042;-77
2023/03/28 05:38:35;;;;;;;5.85;3.55;;;-1.20;99.90;;;;;;4984945;28;20534;-77
2023/03/28 05:41:01;;;;;;;6.57;4.25;;;-1.20;99.90;;;;;;4986358;28;20111;-77
2023/03/28 05:43:27;;;;;;;9.55;4.47;;;-1.20;99.90;;;;;;4985251;28;20060;-77
2023/03/28 05:45:53;;;;;;;6.95;4.18;;;-1.20;99.90;;;;;;4977651;28;20101;-77
2023/03/28 05:48:18;;;;;;;5.30;4.18;;;-1.10;99.90;;;;;;4985822;28;20038;-77
2023/03/28 05:50:46;;;;;;;5.68;4.28;;;-1.00;99.90;;;;;;4985400;28;20034;-77
2023/03/28 05:53:11;;;;;;;6.88;5.47;;;-1.00;99.90;;;;;;4990394;28;20030;-78
2023/03/28 05:55:37;;;;;;;10.45;6.65;;;-1.00;99.90;;;;;;4987619;28;20126;-77
2023/03/28 05:58:06;;;;;;;8.15;6.40;;;-1.00;99.90;;;;;;4989215;28;20058;-78
2023/03/28 06:00:33;;;;;;;9.73;6.22;;;-1.00;99.90;;;;;;4981852;28;20035;-77
2023/03/28 06:02:59;;;;;;;7.55;5.78;;;-1.00;99.90;;;;;;4983644;28;20078;-78
2023/03/28 06:05:25;;;;;;;10.80;5.63;;;-1.00;99.90;;;;;;4990551;28;20094;-78
2023/03/28 06:07:51;;;;;;;7.45;5.43;;;-0.90;99.90;;;;;;4987060;28;20039;-78
2023/03/28 06:10:17;;;;;;;6.00;4.43;;;-0.80;99.90;;;;;;4980687;28;20034;-78
2023/03/28 06:12:42;;;;;;;5.47;3.92;;;-0.80;99.90;;;;;;4993775;28;20039;-79
2023/03/28 06:15:10;;;;;;;9.15;3.92;;;-0.70;99.90;;;;;;4985146;28;20042;-78
2023/03/28 06:17:35;;;;;;;5.57;3.40;;;-0.60;99.90;;;;;;4990147;28;21444;-79
2023/03/28 06:20:05;;;;;;;4.78;4.13;;;-0.60;99.90;;;;;;4987009;28;20039;-78
2023/03/28 06:22:30;;;;;;;5.75;3.65;;;-0.50;99.90;;;;;;4987320;28;20059;-79
2023/03/28 06:24:56;;;;;;;4.93;4.30;;;-0.50;99.90;;;;;;4992205;28;20031;-79
2023/03/28 06:27:21;;;;;;;5.07;3.78;;;-0.40;99.90;;;;;;4984816;28;20038;-78
2023/03/28 06:29:47;;;;;;;4.60;3.90;;;-0.40;99.90;;;;;;4980743;28;20451;-78
2023/03/28 06:32:14;;;;;;;4.47;3.97;;;-0.30;99.90;;;;;;4983889;28;20050;-78
2023/03/28 06:34:39;;;;;;;2.22;2.13;;;-0.30;99.90;;;;;;4987633;28;20090;-79
2023/03/28 06:37:05;;;;;;;8.10;4.45;;;-0.20;99.90;;;;;;4991130;28;20059;-79
2023/03/28 06:39:31;;;;;;;5.80;4.00;;;-0.10;99.90;;;;;;4982359;28;20039;-79
2023/03/28 06:41:57;;;;;;;5.68;4.18;;;-0.10;99.90;;;;;;4987678;28;20082;-80
2023/03/28 06:44:22;;;;;;;9.02;3.75;;;0.00;99.90;;;;;;4993157;28;20035;-79
2023/03/28 06:46:48;;;;;;;4.28;2.70;;;0.10;99.90;;;;;;4987403;28;20482;-79
2023/03/28 06:49:14;;;;;;;3.33;3.05;;;0.10;99.90;;;;;;4988539;28;21003;-78
2023/03/28 06:51:40;;;;;;;4.40;3.45;;;0.20;99.90;;;;;;4992072;28;20026;-79
2023/03/28 06:54:05;;;;;;;3.33;3.00;;;0.20;99.90;;;;;;4993588;28;20043;-79
2023/03/28 06:56:32;;;;;;;5.00;4.43;;;0.30;99.90;;;;;;4988495;28;20046;-79
2023/03/28 06:58:57;;;;;;;3.50;2.55;;;0.40;99.90;;;;;;4995063;28;20030;-79
2023/03/28 07:01:23;;;;;;;3.58;2.95;;;0.50;99.90;;;;;;4986557;28;20051;-79
2023/03/28 07:03:49;;;;;;;2.08;1.98;;;0.50;99.90;;;;;;4988287;28;20043;-79
2023/03/28 07:06:14;;;;;;;2.17;1.58;;;0.60;99.90;;;;;;4993563;28;20041;-80
2023/03/28 07:08:40;;;;;;;5.22;3.95;;;0.70;99.90;;;;;;4993905;28;20520;-81
2023/03/28 07:11:06;;;;;;;5.25;2.85;;;0.80;99.90;;;;;;4989122;28;20039;-80
2023/03/28 07:13:32;;;;;;;4.57;3.70;;;0.90;99.90;;;;;;4990033;28;20118;-79
2023/03/28 07:16:00;;;;;;;6.50;3.50;;;0.90;99.90;;;;;;4984535;28;20038;-79
2023/03/28 07:18:26;;;;;;;4.00;3.15;;;1.00;99.90;;;;;;4991018;28;20023;-79
2023/03/28 07:20:53;;;;;;;3.13;2.80;;;1.10;99.90;;;;;;4986839;28;20043;-79
2023/03/28 07:23:19;;;;;;;3.57;2.10;;;1.20;99.90;;;;;;4989442;28;20058;-78
2023/03/28 07:25:45;;;;;;;2.58;2.38;;;1.20;99.90;;;;;;4993597;28;20640;-78
2023/03/28 07:28:11;;;;;;;3.17;2.67;;;1.30;99.90;;;;;;4987188;28;20062;-78
2023/03/28 07:30:36;;;;;;;2.88;2.50;;;1.30;99.90;;;;;;4993028;28;20498;-78
2023/03/28 07:33:02;;;;;;;2.97;2.70;;;1.40;99.90;;;;;;4988390;28;20027;-78
2023/03/28 07:35:27;;;;;;;3.65;2.78;;;1.40;99.90;;;;;;4987438;28;20038;-78
2023/03/28 07:37:53;;;;;;;1.92;1.83;;;1.50;99.90;;;;;;4989270;28;20560;-78
2023/03/28 07:40:19;;;;;;;3.05;2.80;;;1.60;99.90;;;;;;4992482;28;20133;-76
2023/03/28 07:42:44;;;;;;;4.97;3.35;;;1.70;99.90;;;;;;4988606;28;20035;-77
2023/03/28 07:45:10;;;;;;;6.25;3.97;;;1.80;99.90;;;;;;4986041;28;20062;-78
2023/03/28 07:47:36;;;;;;;7.78;3.47;;;1.90;99.90;;;;;;4987799;28;20081;-77
2023/03/28 07:50:03;;;;;;;6.28;2.92;;;1.80;99.90;;;;;;4985729;28;20487;-78
2023/03/28 07:52:28;;;;;;;6.05;3.20;;;1.80;99.90;;;;;;4989508;28;20061;-78
2023/03/28 07:54:55;;;;;;;4.38;2.25;;;1.60;99.90;;;;;;4985186;28;20038;-78
2023/03/28 07:57:20;;;;;;;6.18;2.65;;;1.60;99.90;;;;;;4987346;28;20014;-78
2023/03/28 07:59:49;;;;;;;5.40;3.22;;;1.60;99.90;;;;;;4986967;28;20101;-78
2023/03/28 08:02:14;;;;;;;2.63;2.42;;;1.60;99.90;;;;;;4989942;28;20042;-78
2023/03/28 08:04:40;;;;;;;6.63;2.97;;;1.70;99.90;;;;;;4984618;28;20037;-78
2023/03/28 08:07:06;;;;;;;2.17;1.98;;;1.70;99.90;;;;;;4985475;28;20030;-78
2023/03/28 08:09:32;;;;;;;4.05;2.50;;;1.70;99.90;;;;;;4987254;28;20031;-78
2023/03/28 08:11:58;;;;;;;3.60;2.47;;;1.90;99.90;;;;;;4981915;28;20030;-78
2023/03/28 08:14:24;;;;;;;6.90;3.42;;;2.10;99.90;;;;;;4987102;28;20498;-78
2023/03/28 08:16:50;;;;;;;2.30;2.13;;;2.40;99.90;;;;;;4985784;28;20372;-78
2023/03/28 08:19:16;;;;;;;3.15;2.25;;;2.60;99.90;;;;;;4985563;28;20043;-78
2023/03/28 08:21:42;;;;;;;3.30;2.17;;;2.70;99.90;;;;;;4985541;28;20141;-78
2023/03/28 08:24:10;;;;;;;2.63;2.13;;;2.60;99.90;;;;;;4992202;28;20050;-78
2023/03/28 08:26:36;;;;;;;3.30;2.53;;;2.50;99.90;;;;;;4983800;28;20030;-78
2023/03/28 08:29:03;;;;;;;2.33;1.92;;;2.50;99.90;;;;;;4985884;28;20038;-78
2023/03/28 08:31:29;;;;;;;3.22;1.60;;;2.40;99.90;;;;;;4983179;28;20058;-78
2023/03/28 08:33:55;;;;;;;1.98;1.67;;;2.30;99.90;;;;;;4996714;28;20049;-78
2023/03/28 08:36:23;;;;;;;3.03;2.10;;;2.20;99.90;;;;;;4983933;28;20074;-78
2023/03/28 08:38:50;;;;;;;2.00;1.48;;;2.60;99.90;;;;;;4989303;28;20064;-78
2023/03/28 08:41:35;;;;;;;4.63;2.40;;;2.90;99.90;;;;;;4995202;28;20061;-79
2023/03/28 08:44:29;;;;;;;3.00;2.50;;;3.00;99.90;;;;;;4987273;28;20026;-78
2023/03/28 08:47:00;;;;;;;2.95;2.15;;;3.00;99.90;;;;;;4983692;28;20031;-79
2023/03/28 08:49:25;;;;;;;5.60;2.47;;;3.30;99.90;;;;;;4991334;28;20090;-79
2023/03/28 08:51:56;;;;;;;5.00;2.13;;;3.40;99.90;;;;;;4990031;28;20050;-79
2023/03/28 08:54:27;;;;;;;3.72;2.17;;;3.50;99.90;;;;;;4985372;28;20030;-79
2023/03/28 08:56:56;;;;;;;3.80;2.30;;;3.70;99.90;;;;;;4986036;28;20042;-79
2023/03/28 08:59:41;;;;;;;2.42;1.73;;;4.00;99.90;;;;;;4987791;28;20023;-80
2023/03/28 09:02:27;;;;;;;4.38;2.20;;;3.90;99.90;;;;;;4983200;28;20073;-80
2023/03/28 09:04:54;;;;;;;5.82;2.83;;;3.60;99.90;;;;;;4988136;28;20106;-80
2023/03/28 09:07:31;;;;;;;3.08;2.30;;;3.70;99.90;;;;;;4981638;28;20034;-79
2023/03/28 09:10:02;;;;;;;3.72;2.35;;;4.10;99.90;;;;;;4989451;28;20035;-79
2023/03/28 09:12:59;;;;;;;1.13;1.02;;;4.50;99.90;;;;;;4986107;28;20033;-79
2023/03/28 09:15:38;;;;;;;6.13;2.45;;;4.20;99.70;;;;;;4981341;28;20034;-80
2023/03/28 09:18:27;;;;;;;4.47;2.50;;;4.20;99.90;;;;;;4988433;28;20038;-78
2023/03/28 09:21:24;;;;;;;1.77;1.67;;;4.20;99.90;;;;;;4987750;28;20038;-82
2023/03/28 09:24:09;;;;;;;1.45;1.45;;;4.40;98.00;;;;;;4985535;28;20065;-80
2023/03/28 09:26:40;;;;;;;2.78;2.20;;;4.60;97.80;;;;;;4988159;28;20027;-79
2023/03/28 09:29:14;;;;;;;8.38;2.88;;;4.80;99.70;;;;;;4992992;28;20063;-81
2023/03/28 09:31:45;;;;;;;2.55;2.30;;;4.80;97.60;;;;;;4981610;28;20499;-79
2023/03/28 09:34:19;;;;;;;2.90;1.95;;;4.60;99.90;;;;;;4991591;28;20044;-80
2023/03/28 09:36:45;;;;;;;1.67;1.58;;;4.50;91.40;;;;;;4983557;28;20029;-81
2023/03/28 09:39:33;;;;;;;3.67;1.90;;;4.40;97.40;;;;;;5003628;28;20041;-81
2023/03/28 09:42:08;;;;;;;2.10;1.87;;;4.80;97.70;;;;;;4986328;28;20054;-80
2023/03/28 09:44:59;;;;;;;5.43;2.00;;;5.10;95.50;;;;;;4989262;28;20051;-80
2023/03/28 09:47:25;;;;;;;3.33;1.77;;;5.50;92.40;;;;;;4993013;28;20033;-80
2023/03/28 09:49:51;;;;;;;4.30;1.63;;;5.60;95.60;;;;;;4992189;28;20391;-80
2023/03/28 09:52:20;;;;;;;4.18;1.83;;;5.30;90.90;;;;;;5003208;28;20034;-80
2023/03/28 09:54:47;;;;;;;1.63;1.52;;;4.90;91.00;;;;;;4986002;28;20024;-79
2023/03/28 09:57:13;;;;;;;3.17;1.60;;;4.60;91.00;;;;;;4990432;28;20065;-80
2023/03/28 09:59:39;;;;;;;2.10;1.90;;;4.40;91.60;;;;;;4989341;28;20042;-81
2023/03/28 10:02:28;;;;;;;3.75;2.10;;;4.80;96.30;;;;;;4989318;28;20050;-80
2023/03/28 10:04:54;;;;;;;0.80;0.80;;;5.30;92.80;;;;;;4988379;28;20379;-79
2023/03/28 10:07:43;;;;;;;2.55;1.70;;;5.40;92.70;;;;;;4982964;28;20042;-79
2023/03/28 10:10:21;;;;;;;3.95;1.85;;;5.00;79.00;;;;;;4992861;28;20038;-79
2023/03/28 10:12:47;;;;;;;2.13;2.03;;;4.70;97.10;;;;;;4991538;28;20045;-79
2023/03/28 10:15:46;;;;;;;2.80;2.08;;;4.40;91.20;;;;;;4992013;28;20031;-78
2023/03/28 10:18:18;;;;;;;5.25;1.92;;;4.10;93.60;;;;;;5005828;28;20397;-78
2023/03/28 10:20:44;;;;;;;1.60;1.30;;;4.20;91.90;;;;;;5017748;28;20018;-79
2023/03/28 10:23:12;;;;;;;2.22;1.55;;;4.10;73.80;;;;;;4989452;28;20114;-77
2023/03/28 10:25:44;;;;;;;2.75;1.45;;;4.40;91.00;;;;;;4988160;28;20042;-79
2023/03/28 10:28:34;;;;;;;2.83;1.80;;;4.90;87.10;;;;;;4989087;28;20038;-79
2023/03/28 10:31:01;;;;;;;1.08;1.08;;;5.30;80.40;;;;;;4981918;28;20117;-79
2023/03/28 10:33:32;;;;;;;1.90;1.60;;;5.40;69.90;;;;;;4992277;28;20354;-78
2023/03/28 10:36:05;;;;;;;2.00;1.80;;;5.60;71.90;;;;;;4989263;28;20023;-79
2023/03/28 10:38:50;;;;;;;3.78;2.10;;;5.50;79.20;;;;;;4988643;28;20031;-78
2023/03/28 10:41:22;;;;;;;2.90;1.27;;;5.30;78.90;;;;;;4987532;28;20116;-81
2023/03/28 10:43:47;;;;;;;1.70;1.60;;;5.00;87.30;;;;;;4992790;28;20082;-77
2023/03/28 10:46:23;;;;;;;1.60;1.38;;;4.80;80.40;;;;;;4990544;28;20054;-78
2023/03/28 10:48:51;;;;;;;2.22;1.48;;;5.00;72.80;;;;;;4988998;28;20415;-78
2023/03/28 10:51:23;;;;;;;2.00;1.80;;;5.40;67.90;;;;;;4990355;28;20030;-78
2023/03/28 10:53:54;;;;;;;1.10;1.10;;;5.90;81.10;;;;;;4991606;28;20041;-78
2023/03/28 10:56:37;;;;;;;2.97;1.80;;;6.50;68.90;;;;;;4989957;28;20038;-77
2023/03/28 10:59:30;;;;;;;4.90;1.80;;;6.40;72.30;;;;;;4989367;28;20039;-78
2023/03/28 11:02:18;;;;;;;3.28;1.85;;;6.50;76.60;;;;;;4986383;28;20047;-78
2023/03/28 11:04:59;;;;;;;2.88;1.73;;;6.30;73.70;;;;;;5008826;28;20034;-78
2023/03/28 11:07:43;;;;;;;1.92;1.80;;;6.00;70.70;;;;;;4982756;28;20030;-77
2023/03/28 11:10:13;;;;;;;2.70;1.77;;;5.70;73.60;;;;;;4985577;28;20062;-77
2023/03/28 11:13:10;;;;;;;3.47;1.50;;;5.70;81.80;;;;;;4986755;28;20061;-77
2023/03/28 11:16:20;;;;;;;1.58;1.42;;;5.90;76.10;;;;;;4989520;28;20066;-77
2023/03/28 11:18:57;;;;;;;2.90;1.70;;;6.00;64.10;;;;;;4990968;28;20026;-76
2023/03/28 11:21:45;;;;;;;3.83;2.50;;;5.80;69.60;;;;;;4988718;28;20042;-80
2023/03/28 11:24:16;;;;;;;2.92;1.77;;;5.70;72.60;;;;;;4991973;28;20051;-78
2023/03/28 11:26:42;;;;;;;3.40;2.15;;;5.50;76.70;;;;;;4987575;28;20034;-78
2023/03/28 11:29:37;;;;;;;2.20;2.00;;;5.40;76.10;;;;;;4987511;28;20045;-78
2023/03/28 11:32:20;;;;;;;1.35;1.27;;;5.60;81.80;;;;;;4993978;28;20057;-79
2023/03/28 11:35:11;;;;;;;2.33;1.77;;;5.60;69.60;;;;;;4993493;28;20041;-78
2023/03/28 11:37:46;;;;;;;3.80;2.13;;;5.80;70.70;;;;;;4997223;28;20034;-78
2023/03/28 11:40:46;;;;;;;2.88;2.42;;;6.20;75.10;;;;;;4991924;28;20042;-78
2023/03/28 11:43:20;;;;;;;5.65;1.90;;;6.40;65.30;;;;;;5003307;28;20589;-78
2023/03/28 11:45:51;;;;;;;2.20;2.00;;;6.70;64.60;;;;;;4989347;28;20031;-78
2023/03/28 11:48:33;;;;;;;3.53;1.83;;;6.70;68.00;;;;;;4990285;28;20057;-79
2023/03/28 11:51:14;;;;;;;1.90;1.17;;;6.90;69.80;;;;;;4994631;28;20062;-81
2023/03/28 11:53:55;;;;;;;3.50;2.10;;;6.80;64.90;;;;;;4984100;28;20030;-79
2023/03/28 11:57:17;;;;;;;2.78;1.42;;;7.00;65.30;;;;;;5004454;28;20553;-78
2023/03/28 12:00:27;;;;;;;2.55;1.73;;;6.50;65.70;;;;;;4963979;28;20050;-78
2023/03/28 12:03:16;;;;;;;4.80;2.00;;;6.10;65.30;;;;;;4944687;29;20054;-78
2023/03/28 12:06:11;;;;;;;1.90;1.73;;;6.20;74.10;;;;;;4970976;28;20071;-78
2023/03/28 12:08:40;;;;;;;1.75;1.42;;;6.60;66.70;;;;;;4972648;28;20044;-78
2023/03/28 12:11:10;;;;;;;3.38;1.73;;;6.60;64.00;;;;;;4965622;28;20039;-78
2023/03/28 12:13:46;;;;;;;3.30;1.92;;;6.50;64.60;;;;;;4971886;28;20026;-78
2023/03/28 12:16:16;;;;;;;2.70;2.13;;;6.60;73.20;;;;;;4979437;28;20102;-78
2023/03/28 12:18:57;;;;;;;2.55;2.08;;;6.70;68.30;;;;;;4969073;28;20027;-77
2023/03/28 12:21:33;;;;;;;5.22;2.00;;;6.80;68.80;;;;;;4965327;28;20031;-78
2023/03/28 12:24:19;;;;;;;4.10;1.95;;;7.20;70.10;;;;;;4972636;28;20043;-78
2023/03/28 12:26:55;;;;;;;2.80;1.70;;;7.30;64.30;;;;;;4962248;28;20668;-81
2023/03/28 12:29:33;;;;;;;2.60;1.88;;;7.40;63.80;;;;;;4994514;28;20048;-79
2023/03/28 12:32:23;;;;;;;1.80;1.70;;;7.30;67.40;;;;;;4974547;28;20052;-78
2023/03/28 12:35:12;;;;;;;1.90;1.73;;;7.40;61.60;;;;;;4988943;28;20067;-83
2023/03/28 12:37:58;;;;;;;3.60;1.60;;;7.60;62.80;;;;;;4991784;28;20046;-76
2023/03/28 12:40:44;;;;;;;2.95;1.80;;;7.80;65.40;;;;;;4988090;28;20042;-77
2023/03/28 12:43:14;;;;;;;2.40;1.73;;;8.00;61.60;;;;;;4979606;28;20050;-77
2023/03/28 12:45:44;;;;;;;3.38;2.30;;;7.80;62.10;;;;;;4990395;28;20026;-77
2023/03/28 12:48:25;;;;;;;1.45;1.35;;;7.80;61.80;;;;;;4989598;28;20062;-79
2023/03/28 12:50:55;;;;;;;1.40;1.35;;;7.60;68.00;;;;;;4987775;28;20094;-78
2023/03/28 12:53:23;;;;;;;4.10;1.85;;;7.60;62.60;;;;;;4982689;28;20039;-77
2023/03/28 12:55:53;;;;;;;3.63;1.80;;;7.30;60.30;;;;;;4980794;28;20094;-79
2023/03/28 12:58:22;;;;;;;2.38;2.10;;;7.50;62.70;;;;;;4993068;28;20030;-78
2023/03/28 13:01:06;;;;;;;2.03;1.92;;;7.70;66.80;;;;;;4990906;28;20058;-78
2023/03/28 13:03:43;;;;;;;2.42;1.15;;;7.90;62.20;;;;;;4994253;28;20026;-77
2023/03/28 13:06:28;;;;;;;2.80;1.70;;;7.90;56.10;;;;;;4984756;28;20054;-78
2023/03/28 13:09:00;;;;;;;1.63;1.52;;;7.80;58.30;;;;;;4993200;28;20041;-78
2023/03/28 13:11:35;;;;;;;1.45;1.35;;;7.50;59.90;;;;;;4984915;28;20042;-78
2023/03/28 13:14:01;;;;;;;3.35;1.90;;;7.50;57.30;;;;;;4988722;28;20155;-77
2023/03/28 13:16:41;;;;;;;2.58;1.77;;;7.60;63.60;;;;;;4991941;28;20139;-77
2023/03/28 13:19:10;;;;;;;2.30;1.75;;;7.90;63.40;;;;;;4990288;28;20030;-77